Time;durP1;ratioP1;P1;durP2;ratioP2;P2;SDS_P1;SDS_P2;PMS_P1;PMS_P2;Temp;Humidity;BMP_temperature;BMP_pressure;BME280_temperature;BME280_humidity;BME280_pressure;Samples;Min_cycle;Max_cycle;Signal;HPM_P1;HPM_P2
2023/09/06 00:01:47;;;;;;;3.00;2.70;;;;;;;17.36;100.00;100502.25;5032693;28;20203;-77
2023/09/06 00:04:12;;;;;;;3.17;2.97;;;;;;;17.31;100.00;100511.19;5032578;28;20280;-76
2023/09/06 00:06:37;;;;;;;4.47;2.87;;;;;;;17.24;100.00;100515.75;5034195;28;20187;-77
2023/09/06 00:09:03;;;;;;;3.40;3.10;;;;;;;17.16;100.00;100508.16;5025166;28;20239;-78
2023/09/06 00:11:29;;;;;;;3.40;2.80;;;;;;;17.09;100.00;100511.03;5032174;28;20203;-76
2023/09/06 00:13:55;;;;;;;3.50;3.00;;;;;;;17.04;100.00;100513.81;5025767;28;20192;-78
2023/09/06 00:16:20;;;;;;;3.37;3.07;;;;;;;16.98;100.00;100520.09;5024704;28;20180;-77
2023/09/06 00:18:45;;;;;;;3.87;3.07;;;;;;;16.94;100.00;100517.59;5027409;28;20677;-78
2023/09/06 00:21:11;;;;;;;3.40;3.10;;;;;;;16.89;100.00;100515.09;5031042;28;20341;-77
2023/09/06 00:23:36;;;;;;;3.50;3.07;;;;;;;16.87;100.00;100511.66;5025787;28;20190;-76
2023/09/06 00:26:02;;;;;;;6.30;3.63;;;;;;;16.88;100.00;100510.78;5024871;28;20187;-77
2023/09/06 00:28:27;;;;;;;4.40;3.03;;;;;;;16.87;100.00;100509.94;5024096;28;20208;-77
2023/09/06 00:30:57;;;;;;;4.73;3.00;;;;;;;16.87;100.00;100512.53;5024187;28;20879;-77
2023/09/06 00:33:24;;;;;;;4.23;2.93;;;;;;;16.85;100.00;100519.56;5023631;28;20296;-77
2023/09/06 00:35:49;;;;;;;4.20;2.93;;;;;;;16.83;100.00;100516.16;5025657;28;20184;-77
2023/09/06 00:38:15;;;;;;;3.10;2.80;;;;;;;16.81;100.00;100515.34;5021774;28;20348;-77
2023/09/06 00:40:40;;;;;;;3.33;3.00;;;;;;;16.81;100.00;100514.50;5023091;28;20630;-76
2023/09/06 00:43:08;;;;;;;6.53;3.40;;;;;;;16.80;100.00;100515.41;5024031;28;20204;-77
2023/09/06 00:45:37;;;;;;;4.43;3.53;;;;;;;16.76;100.00;100510.25;5026599;28;20636;-76
2023/09/06 00:48:05;;;;;;;8.27;3.83;;;;;;;16.73;100.00;100518.19;5028290;28;20211;-78
2023/09/06 00:50:30;;;;;;;6.40;3.23;;;;;;;16.70;100.00;100512.22;5028766;28;20303;-77
2023/09/06 00:52:56;;;;;;;3.67;3.37;;;;;;;16.66;100.00;100514.06;5032903;28;20351;-77
2023/09/06 00:55:22;;;;;;;4.00;3.33;;;;;;;16.63;100.00;100506.31;5029893;28;20561;-76
2023/09/06 00:57:48;;;;;;;3.20;2.77;;;;;;;16.60;100.00;100509.03;5025944;28;20191;-76
2023/09/06 01:00:15;;;;;;;4.10;3.03;;;;;;;16.58;100.00;100516.91;5026782;28;20664;-78
2023/09/06 01:02:40;;;;;;;4.97;3.50;;;;;;;16.56;100.00;100507.44;5027178;28;20737;-78
2023/09/06 01:05:06;;;;;;;3.30;3.00;;;;;;;16.53;100.00;100507.50;5031893;28;20195;-77
2023/09/06 01:07:36;;;;;;;4.17;3.30;;;;;;;16.51;100.00;100496.25;5027053;28;20212;-76
2023/09/06 01:10:03;;;;;;;3.70;3.40;;;;;;;16.48;100.00;100498.94;5024833;28;20187;-77
2023/09/06 01:12:29;;;;;;;3.53;3.00;;;;;;;16.46;100.00;100497.22;5026741;28;20211;-77
2023/09/06 01:14:54;;;;;;;3.90;3.50;;;;;;;16.42;100.00;100498.22;5027107;28;20186;-76
2023/09/06 01:17:22;;;;;;;4.47;3.43;;;;;;;16.39;100.00;100497.47;5027664;28;20180;-77
2023/09/06 01:19:53;;;;;;;3.67;2.97;;;;;;;16.36;100.00;100500.16;5025932;28;20258;-76
2023/09/06 01:22:34;;;;;;;3.47;3.10;;;;;;;16.32;100.00;100491.56;5025140;28;20615;-77
2023/09/06 01:24:59;;;;;;;3.60;3.30;;;;;;;16.28;100.00;100489.94;5018150;28;20194;-77
2023/09/06 01:27:24;;;;;;;4.07;3.77;;;;;;;16.25;100.00;100493.50;5026606;28;20203;-78
2023/09/06 01:29:50;;;;;;;3.93;3.40;;;;;;;16.25;100.00;100497.88;5030333;28;20185;-77
2023/09/06 01:32:17;;;;;;;3.37;3.07;;;;;;;16.19;100.00;100487.59;5026233;28;20211;-76
2023/09/06 01:34:42;;;;;;;4.63;2.93;;;;;;;16.13;100.00;100497.31;5021742;28;20180;-77
2023/09/06 01:37:07;;;;;;;3.73;3.30;;;;;;;16.08;100.00;100495.75;5023427;28;20774;-77
2023/09/06 01:39:33;;;;;;;3.77;3.37;;;;;;;16.00;100.00;100494.22;5019710;28;20195;-77
2023/09/06 01:41:58;;;;;;;3.60;3.30;;;;;;;15.94;100.00;100491.78;5026267;28;20202;-77
2023/09/06 01:44:23;;;;;;;3.30;3.00;;;;;;;15.88;100.00;100485.88;5024030;28;20223;-78
2023/09/06 01:46:49;;;;;;;3.60;3.27;;;;;;;15.79;100.00;100489.56;5020666;28;20218;-77
2023/09/06 01:49:14;;;;;;;3.97;3.30;;;;;;;15.75;100.00;100483.56;5020384;28;20176;-78
2023/09/06 01:51:39;;;;;;;3.73;3.30;;;;;;;15.70;100.00;100483.72;5028672;28;20246;-77
2023/09/06 01:54:06;;;;;;;4.33;3.20;;;;;;;15.66;100.00;100484.69;5020847;28;20188;-77
2023/09/06 01:56:31;;;;;;;3.37;2.93;;;;;;;15.64;100.00;100480.41;5031835;28;20191;-79
2023/09/06 01:58:57;;;;;;;3.97;3.60;;;;;;;15.59;100.00;100490.94;5034732;28;20542;-77
2023/09/06 02:01:22;;;;;;;4.00;3.43;;;;;;;15.55;100.00;100484.13;5021032;28;20756;-77
2023/09/06 02:03:47;;;;;;;3.70;3.40;;;;;;;15.50;100.00;100484.22;5021669;28;20681;-77
2023/09/06 02:06:13;;;;;;;3.53;3.23;;;;;;;15.45;100.00;100485.22;5025549;28;20185;-76
2023/09/06 02:08:39;;;;;;;3.70;3.40;;;;;;;15.41;100.00;100488.84;5024324;28;21105;-76
2023/09/06 02:11:06;;;;;;;4.47;3.63;;;;;;;15.35;100.00;100493.31;5026256;28;20287;-76
2023/09/06 02:13:31;;;;;;;4.23;3.70;;;;;;;15.27;100.00;100494.38;5017477;28;20549;-76
2023/09/06 02:15:57;;;;;;;3.60;3.30;;;;;;;15.19;100.00;100492.84;5020451;28;20181;-76
2023/09/06 02:18:24;;;;;;;4.10;3.80;;;;;;;15.16;100.00;100492.91;5025365;28;20284;-77
2023/09/06 02:20:50;;;;;;;4.10;3.70;;;;;;;15.15;100.00;100493.81;5018454;28;20287;-76
2023/09/06 02:23:15;;;;;;;3.80;3.50;;;;;;;15.13;100.00;100493.00;5022296;28;20779;-77
2023/09/06 02:25:44;;;;;;;4.20;3.80;;;;;;;15.13;100.00;100498.19;5024971;28;20196;-76
2023/09/06 02:28:10;;;;;;;4.17;3.87;;;;;;;15.12;100.00;100493.03;5020508;28;20238;-77
2023/09/06 02:30:38;;;;;;;4.03;3.73;;;;;;;15.07;100.00;100493.13;5023945;28;20671;-77
2023/09/06 02:33:05;;;;;;;4.00;3.60;;;;;;;15.02;100.00;100500.22;5026230;28;20176;-77
2023/09/06 02:35:30;;;;;;;4.23;3.83;;;;;;;14.94;100.00;100495.19;5029823;28;20233;-76
2023/09/06 02:37:56;;;;;;;4.10;3.70;;;;;;;14.90;100.00;100501.38;5020432;28;20660;-77
2023/09/06 02:40:21;;;;;;;4.07;3.77;;;;;;;14.84;100.00;100499.75;5025453;28;20622;-76
2023/09/06 02:42:48;;;;;;;3.80;3.50;;;;;;;14.78;100.00;100498.16;5035267;28;20182;-77
2023/09/06 02:45:14;;;;;;;4.60;3.70;;;;;;;14.76;100.00;100510.34;5035732;28;20187;-77
2023/09/06 02:47:48;;;;;;;4.73;3.87;;;;;;;14.75;100.00;100507.78;5026026;28;20212;-76
2023/09/06 02:50:18;;;;;;;4.60;3.70;;;;;;;14.73;100.00;100507.81;5028593;28;20277;-77
2023/09/06 02:52:47;;;;;;;4.27;3.97;;;;;;;14.69;100.00;100506.16;5025838;28;20296;-76
2023/09/06 02:55:13;;;;;;;4.23;3.93;;;;;;;14.67;100.00;100513.13;5029458;28;20180;-77
2023/09/06 02:57:43;;;;;;;4.43;4.03;;;;;;;14.64;100.00;100514.06;5019270;28;20174;-76
2023/09/06 03:00:24;;;;;;;3.93;3.60;;;;;;;14.61;100.00;100521.09;5018286;28;20251;-76
2023/09/06 03:02:52;;;;;;;4.53;4.13;;;;;;;14.57;100.00;100522.91;5017919;28;20179;-76
2023/09/06 03:05:17;;;;;;;4.00;3.67;;;;;;;14.57;100.00;100522.03;5018782;28;20213;-77
2023/09/06 03:07:50;;;;;;;3.90;3.60;;;;;;;14.57;100.00;100532.44;5021980;28;20215;-76
2023/09/06 03:10:19;;;;;;;4.43;4.00;;;;;;;14.55;100.00;100529.91;5015370;28;20207;-76
2023/09/06 03:13:06;;;;;;;5.03;4.03;;;;;;;14.54;100.00;100527.31;5018444;28;20220;-77
2023/09/06 03:15:31;;;;;;;4.00;3.70;;;;;;;14.50;100.00;100521.31;5013924;28;20297;-76
2023/09/06 03:18:00;;;;;;;4.10;3.70;;;;;;;14.48;100.00;100526.56;5028555;28;20261;-76
2023/09/06 03:20:42;;;;;;;4.07;3.67;;;;;;;14.45;100.00;100516.22;5025453;28;20208;-77
2023/09/06 03:23:17;;;;;;;4.30;3.90;;;;;;;14.43;100.00;100523.19;5020844;28;20205;-76
2023/09/06 03:25:43;;;;;;;4.40;4.00;;;;;;;14.43;100.00;100520.59;5022696;28;20260;-76
2023/09/06 03:28:08;;;;;;;4.53;4.20;;;;;;;14.41;100.00;100517.16;5025449;28;20215;-76
2023/09/06 03:30:34;;;;;;;5.60;5.10;;;;;;;14.40;100.00;100525.00;5022636;28;20206;-76
2023/09/06 03:33:01;;;;;;;5.63;4.63;;;;;;;14.37;100.00;100519.88;5014095;28;20197;-77
2023/09/06 03:35:27;;;;;;;5.03;4.10;;;;;;;14.35;100.00;100522.50;5024073;28;20187;-76
2023/09/06 03:37:52;;;;;;;5.10;4.27;;;;;;;14.36;100.00;100513.81;5029000;28;20179;-78
2023/09/06 03:43:17;;;;;;;4.17;3.77;;;;;;;14.31;100.00;100511.28;5012991;28;20741;-76
2023/09/06 03:45:50;;;;;;;4.10;3.80;;;;;;;14.31;100.00;100511.28;5020417;28;20560;-77
2023/09/06 03:48:17;;;;;;;4.43;4.10;;;;;;;14.28;100.00;100503.56;5022271;28;20212;-77
2023/09/06 03:50:43;;;;;;;5.50;4.33;;;;;;;14.28;100.00;100521.78;5023907;28;20210;-78
2023/09/06 03:53:09;;;;;;;4.83;4.43;;;;;;;14.24;100.00;100514.91;5031706;28;20196;-78
2023/09/06 03:55:34;;;;;;;4.23;3.87;;;;;;;14.20;100.00;100513.25;5026496;28;20202;-76
2023/09/06 03:58:03;;;;;;;5.00;4.50;;;;;;;14.18;100.00;100517.63;5023997;28;20185;-77
2023/09/06 04:00:31;;;;;;;4.90;4.33;;;;;;;14.14;100.00;100518.59;5020525;28;20271;-76
2023/09/06 04:02:56;;;;;;;5.03;4.53;;;;;;;14.11;100.00;100521.25;5028101;28;20252;-76
2023/09/06 04:05:26;;;;;;;4.80;4.37;;;;;;;14.05;100.00;100516.16;5021235;28;20187;-78
2023/09/06 04:07:56;;;;;;;4.23;3.83;;;;;;;13.99;100.00;100515.38;5028895;28;20210;-76
2023/09/06 04:10:35;;;;;;;4.27;3.83;;;;;;;13.95;100.00;100524.16;5023577;28;20185;-77
2023/09/06 04:13:01;;;;;;;4.73;4.33;;;;;;;13.90;100.00;100519.94;5043792;28;20185;-77
2023/09/06 04:15:26;;;;;;;4.67;4.27;;;;;;;13.83;100.00;100516.59;5029861;28;20267;-77
2023/09/06 04:17:58;;;;;;;5.03;4.23;;;;;;;13.81;100.00;100524.41;5020508;28;20183;-77
2023/09/06 04:20:30;;;;;;;5.57;4.10;;;;;;;13.79;100.00;100514.94;5021496;28;20192;-77
2023/09/06 04:22:57;;;;;;;4.40;4.00;;;;;;;13.77;100.00;100522.75;5026260;28;20208;-76
2023/09/06 04:25:23;;;;;;;4.60;4.13;;;;;;;13.77;100.00;100524.50;5021645;28;20192;-76
2023/09/06 04:27:54;;;;;;;4.50;4.10;;;;;;;13.75;100.00;100521.06;5025720;28;20214;-77
2023/09/06 04:30:21;;;;;;;4.53;4.10;;;;;;;13.74;100.00;100524.56;5023175;28;20187;-77
2023/09/06 04:32:46;;;;;;;4.63;4.13;;;;;;;13.72;100.00;100520.22;5024316;28;20193;-76
2023/09/06 04:35:15;;;;;;;4.73;4.23;;;;;;;13.72;100.00;100527.19;5024324;28;20193;-76
2023/09/06 04:37:40;;;;;;;4.90;4.40;;;;;;;13.68;100.00;100528.13;5020060;28;20560;-76
2023/09/06 04:40:08;;;;;;;5.83;4.37;;;;;;;13.64;100.00;100537.72;5018296;28;20183;-77
2023/09/06 04:42:33;;;;;;;4.60;4.20;;;;;;;13.62;100.00;100530.81;5017681;28;20777;-76
2023/09/06 04:44:58;;;;;;;4.57;4.20;;;;;;;13.62;100.00;100536.03;5019720;28;20186;-76
2023/09/06 04:47:24;;;;;;;4.63;4.23;;;;;;;13.59;100.00;100531.75;5018310;28;20206;-76
2023/09/06 04:49:49;;;;;;;5.50;5.00;;;;;;;13.58;100.00;100532.63;5017631;28;20188;-76
2023/09/06 04:52:15;;;;;;;4.87;4.43;;;;;;;13.57;100.00;100530.91;5026149;28;20298;-78
2023/09/06 04:54:40;;;;;;;5.40;4.17;;;;;;;13.54;100.00;100534.44;5019240;28;20180;-76
2023/09/06 04:57:05;;;;;;;4.93;4.10;;;;;;;13.52;100.00;100532.75;5025308;28;20202;-75
2023/09/06 04:59:33;;;;;;;4.57;4.17;;;;;;;13.49;100.00;100536.25;5028801;28;20188;-77
2023/09/06 05:01:58;;;;;;;4.40;4.07;;;;;;;13.45;100.00;100539.81;5030436;28;20255;-76
2023/09/06 05:04:24;;;;;;;4.83;4.33;;;;;;;13.40;100.00;100536.41;5023481;28;20853;-78
2023/09/06 05:06:49;;;;;;;5.63;4.07;;;;;;;13.37;100.00;100539.91;5027098;28;20263;-76
2023/09/06 05:09:15;;;;;;;6.83;4.80;;;;;;;13.38;100.00;100554.59;5023511;28;20268;-77
2023/09/06 05:11:41;;;;;;;5.33;4.53;;;;;;;13.42;100.00;100552.84;5020109;28;20210;-77
2023/09/06 05:14:06;;;;;;;4.10;3.73;;;;;;;13.45;100.00;100559.72;5019992;28;20193;-76
2023/09/06 05:16:31;;;;;;;4.67;4.20;;;;;;;13.47;100.00;100561.41;5022908;28;20203;-77
2023/09/06 05:18:57;;;;;;;4.23;3.93;;;;;;;13.51;100.00;100570.03;5021694;28;20191;-76
2023/09/06 05:21:22;;;;;;;4.50;4.10;;;;;;;13.56;100.00;100574.28;5026869;28;20211;-76
2023/09/06 05:23:47;;;;;;;4.50;4.10;;;;;;;13.60;100.00;100577.66;5020198;28;20699;-76
2023/09/06 05:26:13;;;;;;;4.57;4.17;;;;;;;13.66;100.00;100582.78;5014059;28;20210;-77
2023/09/06 05:28:42;;;;;;;5.13;4.73;;;;;;;13.73;100.00;100583.53;5018218;28;20363;-76
2023/09/06 05:31:09;;;;;;;7.47;5.40;;;;;;;13.83;100.00;100586.84;5026469;28;20212;-76
2023/09/06 05:33:34;;;;;;;7.17;5.67;;;;;;;13.94;100.00;100595.28;5018291;28;20190;-75
2023/09/06 05:35:59;;;;;;;7.23;6.07;;;;;;;14.07;100.00;100600.28;5022783;28;20276;-75
2023/09/06 05:38:25;;;;;;;8.33;6.27;;;;;;;14.17;100.00;100605.28;5021301;28;20219;-77
2023/09/06 05:40:50;;;;;;;7.50;5.93;;;;;;;14.28;100.00;100607.69;5019687;28;20217;-78
2023/09/06 05:43:15;;;;;;;8.27;6.00;;;;;;;14.40;100.00;100608.34;5013263;28;20202;-76
2023/09/06 05:45:41;;;;;;;7.43;6.40;;;;;;;14.50;100.00;100607.25;5023218;28;20182;-77
2023/09/06 05:48:06;;;;;;;6.73;6.00;;;;;;;14.60;100.00;100611.38;5022747;28;20698;-78
2023/09/06 05:50:32;;;;;;;6.27;5.53;;;;;;;14.73;100.00;100608.56;5023585;28;20240;-76
2023/09/06 05:52:57;;;;;;;6.30;5.40;;;;;;;14.89;100.00;100616.91;5019802;28;20194;-77
2023/09/06 05:55:23;;;;;;;6.00;5.50;;;;;;;15.02;100.00;100609.69;5025078;28;20883;-77
2023/09/06 05:57:48;;;;;;;5.27;4.77;;;;;;;15.18;100.00;100616.28;5030078;28;20261;-77
2023/09/06 06:00:15;;;;;;;5.00;4.60;;;;;;;15.35;100.00;100615.88;5018783;28;21015;-77
2023/09/06 06:02:41;;;;;;;5.17;4.60;;;;;;;15.52;100.00;100620.66;5025093;28;20209;-76
2023/09/06 06:05:07;;;;;;;5.13;4.63;;;;;;;15.62;100.00;100612.63;5017215;28;20204;-77
2023/09/06 06:07:33;;;;;;;5.07;4.67;;;;;;;15.70;100.00;100616.78;5017163;28;20220;-77
2023/09/06 06:09:58;;;;;;;4.10;3.80;;;;;;;15.75;100.00;100616.66;5026487;28;20282;-76
2023/09/06 06:12:24;;;;;;;5.13;4.73;;;;;;;15.79;100.00;100617.41;5017004;28;20204;-78
2023/09/06 06:14:51;;;;;;;5.50;5.00;;;;;;;15.85;100.00;100618.16;5023713;28;20250;-78
2023/09/06 06:17:17;;;;;;;4.80;4.40;;;;;;;15.97;100.00;100617.00;5025008;28;20189;-77
2023/09/06 06:19:43;;;;;;;4.37;4.07;;;;;;;16.12;100.00;100620.09;5021281;28;20187;-77
2023/09/06 06:22:09;;;;;;;5.50;5.00;;;;;;;16.25;100.00;100621.47;5017451;28;20307;-76
2023/09/06 06:24:35;;;;;;;4.87;4.47;;;;;;;16.39;100.00;100618.50;5025779;28;20198;-77
2023/09/06 06:27:00;;;;;;;4.57;4.10;;;;;;;16.58;100.00;100616.19;5021613;28;20286;-76
2023/09/06 06:29:26;;;;;;;4.90;4.40;;;;;;;16.77;100.00;100626.13;5020397;28;20200;-77
2023/09/06 06:31:52;;;;;;;4.83;4.43;;;;;;;17.00;100.00;100621.97;5024485;28;20208;-76
2023/09/06 06:34:20;;;;;;;5.20;4.77;;;;;;;17.24;100.00;100632.59;5022957;28;20191;-76
2023/09/06 06:36:46;;;;;;;5.33;3.93;;;;;;;17.44;100.00;100629.34;5032459;28;20735;-77
2023/09/06 06:39:12;;;;;;;4.97;4.57;;;;;;;17.83;100.00;100631.56;5026819;28;20194;-77
2023/09/06 06:41:38;;;;;;;5.90;5.37;;;;;;;18.20;100.00;100638.19;5029049;28;20288;-78
2023/09/06 06:44:03;;;;;;;5.20;4.70;;;;;;;18.46;100.00;100636.38;5026453;28;20191;-77
2023/09/06 06:46:30;;;;;;;4.37;3.97;;;;;;;18.79;100.00;100643.06;5021922;28;20218;-78
2023/09/06 06:48:57;;;;;;;5.63;4.30;;;;;;;19.24;100.00;100644.84;5026227;28;21103;-77
2023/09/06 06:51:39;;;;;;;4.73;3.80;;;;;;;19.70;99.85;100644.78;5027968;28;20728;-77
2023/09/06 06:54:07;;;;;;;6.10;3.90;;;;;;;20.16;97.79;100643.78;5021281;28;20238;-79
2023/09/06 06:56:33;;;;;;;4.13;3.73;;;;;;;20.32;96.75;100641.31;5032856;28;20313;-78
2023/09/06 06:58:58;;;;;;;5.57;4.97;;;;;;;20.41;94.94;100641.75;5030799;28;20440;-77
2023/09/06 07:01:27;;;;;;;4.90;4.10;;;;;;;20.84;92.99;100648.66;5019887;28;20209;-77
2023/09/06 07:03:52;;;;;;;4.57;3.90;;;;;;;21.22;91.15;100646.00;5029419;28;20277;-77
2023/09/06 07:06:18;;;;;;;5.37;4.20;;;;;;;21.39;90.37;100644.34;5027904;28;20484;-77
2023/09/06 07:08:43;;;;;;;10.10;5.77;;;;;;;21.14;88.64;100643.75;5031410;28;20203;-77
2023/09/06 07:11:08;;;;;;;5.20;4.33;;;;;;;21.46;88.10;100643.97;5023025;28;20692;-77
2023/09/06 07:13:34;;;;;;;4.53;4.07;;;;;;;21.63;87.81;100631.75;5026231;28;20179;-77
2023/09/06 07:16:00;;;;;;;4.43;4.03;;;;;;;22.11;85.91;100633.75;5034471;28;20188;-78
2023/09/06 07:18:25;;;;;;;6.60;4.80;;;;;;;21.46;86.43;100649.22;5021881;28;20675;-77
2023/09/06 07:20:50;;;;;;;6.70;4.40;;;;;;;21.92;86.19;100638.19;5019293;28;20249;-77
2023/09/06 07:23:16;;;;;;;7.97;5.10;;;;;;;21.50;86.54;100630.63;5024467;28;20195;-78
2023/09/06 07:25:46;;;;;;;5.83;3.80;;;;;;;21.84;86.59;100626.34;5023240;28;20187;-78
2023/09/06 07:28:12;;;;;;;6.03;3.90;;;;;;;22.13;85.77;100631.88;5019755;28;20211;-77
2023/09/06 07:30:38;;;;;;;4.77;4.37;;;;;;;22.00;85.59;100634.34;5027218;28;20204;-77
2023/09/06 07:33:03;;;;;;;6.17;3.90;;;;;;;22.01;84.00;100636.00;5024127;28;20185;-78
2023/09/06 07:35:29;;;;;;;6.07;3.67;;;;;;;21.86;82.46;100632.38;5028168;28;20200;-78
2023/09/06 07:37:54;;;;;;;5.43;3.33;;;;;;;21.42;82.74;100642.41;5025722;28;20228;-77
2023/09/06 07:40:20;;;;;;;4.17;3.50;;;;;;;20.65;80.53;100644.19;5026977;28;20184;-78
2023/09/06 07:42:45;;;;;;;4.27;3.70;;;;;;;19.96;83.07;100648.09;5026558;28;20187;-77
2023/09/06 07:45:11;;;;;;;6.83;4.30;;;;;;;19.79;87.80;100646.16;5035543;28;20195;-78
2023/09/06 07:47:36;;;;;;;5.67;3.80;;;;;;;20.38;85.87;100646.31;5041053;28;20211;-76
2023/09/06 07:50:04;;;;;;;5.63;3.67;;;;;;;20.84;85.03;100644.25;5025897;28;20183;-77
2023/09/06 07:52:30;;;;;;;4.53;3.97;;;;;;;20.78;83.90;100654.22;5023802;28;20230;-77
2023/09/06 07:54:55;;;;;;;4.47;3.53;;;;;;;20.81;85.96;100654.03;5038861;28;20217;-77
2023/09/06 07:57:21;;;;;;;4.27;3.73;;;;;;;21.07;86.65;100657.25;5028555;28;20568;-77
2023/09/06 07:59:46;;;;;;;6.73;3.63;;;;;;;21.23;85.93;100657.38;5036498;28;20194;-77
2023/09/06 08:02:11;;;;;;;6.17;4.10;;;;;;;21.10;86.35;100651.84;5024965;28;20196;-78
2023/09/06 08:04:36;;;;;;;4.87;3.83;;;;;;;20.74;88.15;100652.59;5026876;28;20206;-77
2023/09/06 08:07:03;;;;;;;6.17;3.77;;;;;;;20.75;88.66;100656.94;5025079;28;20229;-77
2023/09/06 08:09:29;;;;;;;6.17;3.63;;;;;;;20.49;89.49;100653.72;5025557;28;20184;-78
2023/09/06 08:11:54;;;;;;;4.30;3.90;;;;;;;20.46;88.66;100648.59;5024796;28;20207;-77
2023/09/06 08:14:19;;;;;;;4.07;3.60;;;;;;;20.55;88.73;100648.16;5024347;28;20271;-78
2023/09/06 08:16:45;;;;;;;4.70;3.90;;;;;;;20.46;89.92;100644.19;5024760;28;20263;-77
2023/09/06 08:19:10;;;;;;;5.80;4.30;;;;;;;20.49;89.48;100646.69;5023930;28;20242;-76
2023/09/06 08:21:37;;;;;;;5.80;4.03;;;;;;;20.36;90.27;100648.97;5033291;28;20203;-77
2023/09/06 08:24:02;;;;;;;5.77;3.80;;;;;;;20.53;91.17;100650.88;5027691;28;20187;-76
2023/09/06 08:26:29;;;;;;;3.87;3.47;;;;;;;20.38;91.02;100651.56;5025289;28;20978;-76
2023/09/06 08:28:54;;;;;;;5.37;4.10;;;;;;;20.68;90.61;100651.94;5028451;28;20231;-75
2023/09/06 08:31:19;;;;;;;4.20;3.77;;;;;;;20.84;89.40;100659.16;5026402;28;20683;-77
2023/09/06 08:33:45;;;;;;;6.33;3.90;;;;;;;20.77;89.34;100655.97;5018018;28;20183;-76
2023/09/06 08:36:11;;;;;;;4.27;3.87;;;;;;;20.72;89.72;100657.94;5022016;28;20608;-76
2023/09/06 08:38:37;;;;;;;6.10;3.90;;;;;;;20.78;90.35;100656.84;5028717;28;20195;-77
2023/09/06 08:41:05;;;;;;;5.03;3.80;;;;;;;20.80;88.03;100652.34;5026794;28;20196;-78
2023/09/06 08:43:36;;;;;;;4.10;3.70;;;;;;;21.00;88.98;100654.91;5029163;28;20593;-79
2023/09/06 08:46:28;;;;;;;4.20;3.80;;;;;;;21.15;89.45;100655.97;5033678;28;20183;-78
2023/09/06 08:48:55;;;;;;;4.57;3.63;;;;;;;20.91;89.98;100657.97;5023376;28;20235;-78
2023/09/06 08:51:21;;;;;;;5.33;4.20;;;;;;;20.99;89.93;100655.00;5025983;28;20201;-77
2023/09/06 08:53:47;;;;;;;5.17;4.10;;;;;;;21.09;90.08;100648.34;5026370;28;20187;-77
2023/09/06 08:56:15;;;;;;;6.00;3.80;;;;;;;21.15;89.81;100652.47;5024957;28;20240;-77
2023/09/06 08:58:41;;;;;;;5.13;4.40;;;;;;;21.23;89.17;100641.56;5034106;28;20244;-77
2023/09/06 09:01:07;;;;;;;3.97;3.60;;;;;;;21.10;89.49;100647.44;5026360;28;20207;-78
2023/09/06 09:03:33;;;;;;;4.40;4.00;;;;;;;21.21;90.08;100649.56;5030086;28;20964;-79
2023/09/06 09:06:00;;;;;;;4.60;4.20;;;;;;;21.39;90.08;100646.97;5034801;28;20179;-78
2023/09/06 09:08:28;;;;;;;4.50;4.10;;;;;;;21.54;89.32;100643.59;5028332;28;20203;-77
2023/09/06 09:11:12;;;;;;;5.47;4.00;;;;;;;21.40;89.63;100651.31;5024648;28;20214;-77
2023/09/06 09:13:37;;;;;;;5.07;4.37;;;;;;;21.49;89.26;100650.84;5027338;28;20783;-77
2023/09/06 09:16:09;;;;;;;5.23;4.77;;;;;;;21.67;90.35;100637.75;5032203;28;20191;-78
2023/09/06 09:18:40;;;;;;;6.50;4.63;;;;;;;21.75;88.18;100640.81;5035522;28;20187;-78
2023/09/06 09:21:12;;;;;;;5.90;4.40;;;;;;;21.54;89.10;100650.63;5028191;28;20731;-78
2023/09/06 09:23:42;;;;;;;7.87;4.83;;;;;;;21.51;88.69;100651.63;5042250;28;20601;-77
2023/09/06 09:26:08;;;;;;;7.90;4.53;;;;;;;21.61;88.78;100646.81;5028039;28;20188;-78
2023/09/06 09:28:34;;;;;;;9.07;5.00;;;;;;;21.83;90.34;100635.16;5032087;28;20218;-77
2023/09/06 09:30:59;;;;;;;5.70;4.80;;;;;;;21.95;90.01;100633.72;5023147;28;20231;-78
2023/09/06 09:33:29;;;;;;;5.13;4.60;;;;;;;21.93;89.54;100634.63;5032381;28;20211;-78
2023/09/06 09:35:55;;;;;;;6.73;4.33;;;;;;;22.18;88.64;100625.44;5031859;28;20325;-79
2023/09/06 09:38:21;;;;;;;5.13;4.70;;;;;;;22.18;88.74;100633.34;5034354;28;20199;-79
2023/09/06 09:41:04;;;;;;;6.80;4.60;;;;;;;22.24;89.71;100632.19;5038015;28;20220;-80
2023/09/06 09:43:29;;;;;;;4.97;4.57;;;;;;;22.28;86.95;100623.19;5031906;28;20190;-78
2023/09/06 09:45:55;;;;;;;5.37;4.87;;;;;;;22.41;87.29;100627.78;5026810;28;20180;-78
2023/09/06 09:48:27;;;;;;;4.53;4.13;;;;;;;22.49;87.24;100625.66;5027306;28;20207;-78
2023/09/06 09:50:54;;;;;;;5.77;4.33;;;;;;;22.42;87.41;100619.00;5032472;28;20291;-78
2023/09/06 09:53:23;;;;;;;5.30;4.27;;;;;;;22.56;87.39;100610.34;5024708;28;20219;-77
2023/09/06 09:55:51;;;;;;;5.90;4.63;;;;;;;22.57;85.99;100619.97;5030462;28;20756;-78
2023/09/06 09:58:19;;;;;;;4.83;4.33;;;;;;;22.61;86.81;100618.88;5026690;28;21459;-78
2023/09/06 10:00:44;;;;;;;5.67;5.00;;;;;;;22.73;85.71;100614.69;5020202;28;20829;-78
2023/09/06 10:03:11;;;;;;;6.37;4.77;;;;;;;22.86;86.91;100607.78;5029973;28;20179;-77
2023/09/06 10:05:37;;;;;;;5.10;4.60;;;;;;;22.94;86.48;100605.59;5028921;28;20202;-78
2023/09/06 10:08:05;;;;;;;5.60;4.20;;;;;;;23.07;85.67;100604.91;5032973;28;20207;-77
2023/09/06 10:10:33;;;;;;;4.97;4.37;;;;;;;23.21;85.72;100605.00;5029322;28;20279;-78
2023/09/06 10:13:06;;;;;;;4.70;4.30;;;;;;;23.29;85.10;100609.84;5022240;28;20196;-77
2023/09/06 10:15:32;;;;;;;5.20;4.67;;;;;;;23.26;84.45;100612.66;5039923;28;20202;-78
2023/09/06 10:17:58;;;;;;;5.20;4.80;;;;;;;23.24;84.29;100607.47;5032967;28;20207;-77
2023/09/06 10:20:26;;;;;;;5.90;4.63;;;;;;;23.27;84.76;100607.31;5020601;28;20195;-78
2023/09/06 10:22:55;;;;;;;6.17;4.60;;;;;;;23.46;85.35;100606.22;5027031;28;20191;-77
2023/09/06 10:25:21;;;;;;;5.13;4.27;;;;;;;23.42;86.81;100600.28;5023763;28;20571;-78
2023/09/06 10:27:59;;;;;;;5.87;4.93;;;;;;;23.60;84.92;100602.78;5018802;28;20212;-77
2023/09/06 10:30:43;;;;;;;5.30;4.80;;;;;;;23.69;84.52;100604.88;5025463;28;20202;-78
2023/09/06 10:33:09;;;;;;;4.80;4.40;;;;;;;23.56;82.85;100598.59;5023460;28;20179;-79
2023/09/06 10:35:41;;;;;;;5.03;4.53;;;;;;;23.63;83.49;100596.44;5023849;28;20233;-79
2023/09/06 10:38:14;;;;;;;6.70;4.77;;;;;;;23.71;83.88;100597.69;5024752;28;20187;-76
2023/09/06 10:40:49;;;;;;;5.33;4.80;;;;;;;23.68;84.75;100594.41;5019681;28;20676;-77
2023/09/06 10:43:15;;;;;;;4.93;4.50;;;;;;;23.89;84.37;100589.63;5019006;28;20192;-76
2023/09/06 10:45:53;;;;;;;5.33;4.17;;;;;;;23.79;83.81;100586.69;5023097;28;20190;-76
2023/09/06 10:48:18;;;;;;;6.60;4.57;;;;;;;23.84;83.63;100584.63;5017298;28;20195;-76
2023/09/06 10:51:06;;;;;;;5.43;4.23;;;;;;;23.90;82.55;100583.41;5029921;28;20389;-77
2023/09/06 10:53:33;;;;;;;4.57;4.17;;;;;;;24.10;83.40;100578.72;5021947;28;20187;-76
2023/09/06 10:56:00;;;;;;;5.73;4.07;;;;;;;24.26;82.85;100576.84;5021635;28;20192;-81
2023/09/06 10:58:28;;;;;;;4.93;3.77;;;;;;;24.11;82.97;100575.16;5020017;28;20270;-75
2023/09/06 11:01:18;;;;;;;4.93;4.50;;;;;;;24.16;81.88;100576.56;5018849;28;20254;-79
2023/09/06 11:03:48;;;;;;;5.03;4.53;;;;;;;24.26;82.72;100563.63;5024373;28;20191;-76
2023/09/06 11:06:14;;;;;;;5.23;4.17;;;;;;;24.37;81.12;100568.22;5017166;28;20191;-77
2023/09/06 11:08:40;;;;;;;5.17;4.50;;;;;;;24.40;80.72;100573.31;5021971;28;20579;-77
2023/09/06 11:11:09;;;;;;;5.10;4.63;;;;;;;24.26;80.80;100575.97;5024055;28;20204;-76
2023/09/06 11:13:39;;;;;;;5.23;4.73;;;;;;;24.29;82.45;100567.84;5025206;28;20207;-77
2023/09/06 11:16:10;;;;;;;5.53;4.50;;;;;;;24.30;81.34;100580.97;5025877;28;20184;-76
2023/09/06 11:18:50;;;;;;;4.80;4.40;;;;;;;24.30;80.08;100567.75;5022495;28;20277;-77
2023/09/06 11:21:19;;;;;;;4.87;4.30;;;;;;;24.39;79.23;100576.06;5024395;28;20575;-75
2023/09/06 11:23:49;;;;;;;4.97;4.47;;;;;;;24.55;80.14;100571.53;5023319;28;20567;-76